CFFBE CYXU-CYXU
Flight info
| Callsign | CFFBE |
|---|---|
| Flight time | N/A |
| Altitude | 3000 |
| Route | DEP NW |
| Aircraft | C650 |
Departure
| Time | 2026-04-25 00:31 |
|---|---|
| Airport | London International Airport (CYXU) |
Arrival
| Time | N/A |
|---|---|
| Airport | London International Airport (CYXU) |
| Time | Latitude | Longitude | Altitude | Speed | Heading |
|---|---|---|---|---|---|
| 2026-04-25 00:22 | 43.03216 | -81.15362 | 907 ft | 0 kts | 50° |
| 2026-04-25 00:23 | 43.03216 | -81.15361 | 907 ft | 0 kts | 50° |
| 2026-04-25 00:23 | 43.03227 | -81.15314 | 907 ft | 11 kts | 98° |
| 2026-04-25 00:24 | 43.03245 | -81.15209 | 907 ft | 12 kts | 47° |
| 2026-04-25 00:24 | 43.03313 | -81.15222 | 907 ft | 13 kts | 319° |
| 2026-04-25 00:24 | 43.03388 | -81.15311 | 908 ft | 15 kts | 317° |
| 2026-04-25 00:24 | 43.03472 | -81.15413 | 909 ft | 16 kts | 317° |
| 2026-04-25 00:25 | 43.03565 | -81.15524 | 911 ft | 18 kts | 318° |
| 2026-04-25 00:25 | 43.03664 | -81.15643 | 913 ft | 20 kts | 318° |
| 2026-04-25 00:25 | 43.03692 | -81.15800 | 911 ft | 20 kts | 258° |
| 2026-04-25 00:25 | 43.03663 | -81.16004 | 910 ft | 23 kts | 259° |
| 2026-04-25 00:26 | 43.03637 | -81.16190 | 910 ft | 14 kts | 258° |
| 2026-04-25 00:26 | 43.03679 | -81.16269 | 910 ft | 4 kts | 348° |
| 2026-04-25 00:26 | 43.03684 | -81.16270 | 910 ft | 0 kts | 348° |
| 2026-04-25 00:28 | 43.03694 | -81.16273 | 910 ft | 4 kts | 349° |
| 2026-04-25 00:28 | 43.03715 | -81.16279 | 910 ft | 0 kts | 348° |
| 2026-04-25 00:30 | 43.03717 | -81.16280 | 910 ft | 1 kts | 348° |
| 2026-04-25 00:30 | 43.03763 | -81.16293 | 908 ft | 11 kts | 349° |
| 2026-04-25 00:30 | 43.03820 | -81.16264 | 908 ft | 7 kts | 79° |
| 2026-04-25 00:30 | 43.03821 | -81.16260 | 908 ft | 0 kts | 81° |
| 2026-04-25 00:31 | 43.03869 | -81.15919 | 910 ft | 87 kts | 79° |
| 2026-04-25 00:31 | 43.04039 | -81.14743 | 1070 ft | 154 kts | 81° |
| 2026-04-25 00:31 | 43.04237 | -81.13248 | 1911 ft | 171 kts | 82° |
| 2026-04-25 00:32 | 43.04530 | -81.11601 | 2757 ft | 194 kts | 70° |
| 2026-04-25 00:32 | 43.05484 | -81.10204 | 3612 ft | 217 kts | 29° |
| 2026-04-25 00:32 | 43.06975 | -81.09849 | 4306 ft | 230 kts | 352° |
| 2026-04-25 00:32 | 43.08408 | -81.10709 | 4483 ft | 226 kts | 315° |
| 2026-04-25 00:33 | 43.09262 | -81.12434 | 4496 ft | 216 kts | 293° |
| 2026-04-25 00:33 | 43.09867 | -81.14289 | 4499 ft | 215 kts | 291° |
| 2026-04-25 00:33 | 43.10461 | -81.16161 | 4497 ft | 214 kts | 291° |
| 2026-04-25 00:33 | 43.11057 | -81.18031 | 4493 ft | 214 kts | 291° |
| 2026-04-25 00:34 | 43.11650 | -81.19894 | 4493 ft | 213 kts | 291° |
| 2026-04-25 00:34 | 43.12237 | -81.21732 | 4496 ft | 213 kts | 291° |
| 2026-04-25 00:34 | 43.12842 | -81.23602 | 4498 ft | 213 kts | 291° |
| 2026-04-25 00:34 | 43.13462 | -81.25524 | 4493 ft | 235 kts | 291° |
| 2026-04-25 00:35 | 43.14134 | -81.27657 | 4476 ft | 252 kts | 291° |
| 2026-04-25 00:35 | 43.14830 | -81.29871 | 4473 ft | 255 kts | 291° |
| 2026-04-25 00:35 | 43.15541 | -81.32111 | 4479 ft | 257 kts | 291° |
| 2026-04-25 00:35 | 43.16246 | -81.34337 | 4481 ft | 257 kts | 291° |
| 2026-04-25 00:36 | 43.16952 | -81.36593 | 4480 ft | 258 kts | 291° |
| 2026-04-25 00:36 | 43.17663 | -81.38860 | 4480 ft | 257 kts | 290° |
| 2026-04-25 00:36 | 43.18050 | -81.41213 | 4464 ft | 253 kts | 268° |
| 2026-04-25 00:36 | 43.18034 | -81.43625 | 4465 ft | 254 kts | 270° |
| 2026-04-25 00:37 | 43.18117 | -81.46006 | 4473 ft | 254 kts | 271° |
| 2026-04-25 00:37 | 43.18218 | -81.48445 | 4463 ft | 254 kts | 271° |
| 2026-04-25 00:37 | 43.18315 | -81.50838 | 4467 ft | 255 kts | 272° |
| 2026-04-25 00:37 | 43.18416 | -81.53287 | 4466 ft | 254 kts | 271° |
| 2026-04-25 00:38 | 43.18521 | -81.55689 | 4476 ft | 254 kts | 271° |
| 2026-04-25 00:38 | 43.18474 | -81.58080 | 4482 ft | 253 kts | 263° |
| 2026-04-25 00:38 | 43.18277 | -81.60487 | 4476 ft | 253 kts | 262° |
| 2026-04-25 00:38 | 43.18068 | -81.62859 | 4473 ft | 253 kts | 262° |
| 2026-04-25 00:39 | 43.17861 | -81.65272 | 4474 ft | 253 kts | 261° |
| 2026-04-25 00:39 | 43.17661 | -81.67628 | 4472 ft | 252 kts | 261° |
| 2026-04-25 00:39 | 43.17465 | -81.70029 | 4463 ft | 252 kts | 261° |
| 2026-04-25 00:39 | 43.17262 | -81.72424 | 4463 ft | 252 kts | 261° |
| 2026-04-25 00:40 | 43.17056 | -81.74770 | 4463 ft | 251 kts | 261° |
| 2026-04-25 00:40 | 43.16852 | -81.77165 | 4442 ft | 252 kts | 261° |
| 2026-04-25 00:40 | 43.16653 | -81.79518 | 4457 ft | 250 kts | 262° |
| 2026-04-25 00:40 | 43.16449 | -81.81882 | 4459 ft | 250 kts | 262° |
| 2026-04-25 00:41 | 43.16249 | -81.84255 | 4459 ft | 250 kts | 261° |
| 2026-04-25 00:41 | 43.16047 | -81.86603 | 4463 ft | 250 kts | 261° |
| 2026-04-25 00:41 | 43.15840 | -81.88972 | 4459 ft | 250 kts | 261° |
| 2026-04-25 00:41 | 43.15646 | -81.91338 | 4455 ft | 250 kts | 264° |
| 2026-04-25 00:42 | 43.15665 | -81.93720 | 4458 ft | 252 kts | 272° |
| 2026-04-25 00:42 | 43.15754 | -81.96112 | 4459 ft | 251 kts | 270° |
| 2026-04-25 00:42 | 43.15834 | -81.98482 | 4459 ft | 251 kts | 271° |
| 2026-04-25 00:42 | 43.15915 | -82.00848 | 4466 ft | 251 kts | 271° |
| 2026-04-25 00:43 | 43.15994 | -82.03233 | 4469 ft | 251 kts | 271° |
| 2026-04-25 00:43 | 43.16077 | -82.05624 | 4468 ft | 251 kts | 271° |
| 2026-04-25 00:43 | 43.16156 | -82.08021 | 4458 ft | 249 kts | 270° |
| 2026-04-25 00:43 | 43.16231 | -82.10368 | 4465 ft | 250 kts | 271° |
| 2026-04-25 00:44 | 43.16311 | -82.12740 | 4445 ft | 250 kts | 270° |
| 2026-04-25 00:44 | 43.16389 | -82.15114 | 4455 ft | 249 kts | 270° |
| 2026-04-25 00:44 | 43.16465 | -82.17481 | 4453 ft | 249 kts | 271° |
| 2026-04-25 00:44 | 43.16539 | -82.19835 | 4465 ft | 248 kts | 270° |
| 2026-04-25 00:45 | 43.16614 | -82.22222 | 4464 ft | 249 kts | 270° |
| 2026-04-25 00:45 | 43.16687 | -82.24540 | 4319 ft | 242 kts | 270° |
| 2026-04-25 00:45 | 43.16758 | -82.26833 | 3983 ft | 238 kts | 270° |
| 2026-04-25 00:45 | 43.16827 | -82.29004 | 3923 ft | 224 kts | 270° |
| 2026-04-25 00:46 | 43.16892 | -82.31106 | 3714 ft | 218 kts | 270° |
| 2026-04-25 00:46 | 43.16955 | -82.33157 | 3544 ft | 210 kts | 270° |
| 2026-04-25 00:46 | 43.16905 | -82.37061 | 2962 ft | 203 kts | 247° |
| 2026-04-25 00:47 | 43.16143 | -82.38607 | 2674 ft | 197 kts | 224° |
| 2026-04-25 00:47 | 43.15207 | -82.39951 | 2442 ft | 194 kts | 224° |
| 2026-04-25 00:47 | 43.14293 | -82.41282 | 2218 ft | 190 kts | 224° |
| 2026-04-25 00:47 | 43.13386 | -82.42603 | 1940 ft | 191 kts | 223° |
| 2026-04-25 00:48 | 43.12434 | -82.43845 | 1709 ft | 183 kts | 210° |
| 2026-04-25 00:48 | 43.11285 | -82.44334 | 1409 ft | 174 kts | 179° |
| 2026-04-25 00:48 | 43.10137 | -82.43887 | 988 ft | 174 kts | 147° |
| 2026-04-25 00:48 | 43.09240 | -82.42822 | 809 ft | 172 kts | 136° |
| 2026-04-25 00:49 | 43.08389 | -82.41674 | 1086 ft | 174 kts | 136° |
| 2026-04-25 00:49 | 43.07588 | -82.40557 | 1480 ft | 155 kts | 134° |
| 2026-04-25 00:49 | 43.06879 | -82.39424 | 1775 ft | 162 kts | 136° |
| 2026-04-25 00:49 | 43.06054 | -82.38498 | 1242 ft | 170 kts | 142° |
| 2026-04-25 00:50 | 43.05201 | -82.37522 | 1023 ft | 149 kts | 140° |
| 2026-04-25 00:50 | 43.04462 | -82.36623 | 947 ft | 140 kts | 139° |
| 2026-04-25 00:50 | 43.03755 | -82.35712 | 1041 ft | 139 kts | 137° |
| 2026-04-25 00:50 | 43.03040 | -82.34829 | 1202 ft | 139 kts | 140° |
| 2026-04-25 00:51 | 43.02302 | -82.33940 | 1147 ft | 143 kts | 138° |
| 2026-04-25 00:51 | 43.01603 | -82.33038 | 958 ft | 137 kts | 138° |
| 2026-04-25 00:51 | 43.00940 | -82.32188 | 776 ft | 127 kts | 136° |
| 2026-04-25 00:51 | 43.00279 | -82.31320 | 1025 ft | 140 kts | 138° |
| 2026-04-25 00:52 | 42.99533 | -82.30381 | 1485 ft | 149 kts | 139° |
| 2026-04-25 00:52 | 42.98696 | -82.29321 | 1938 ft | 177 kts | 139° |
| 2026-04-25 00:52 | 42.97772 | -82.28147 | 2595 ft | 193 kts | 139° |
| 2026-04-25 00:52 | 42.96709 | -82.26804 | 2668 ft | 210 kts | 139° |
| 2026-04-25 00:53 | 42.95658 | -82.25460 | 2678 ft | 206 kts | 139° |
| 2026-04-25 00:53 | 42.94616 | -82.24131 | 2671 ft | 207 kts | 139° |
| 2026-04-25 00:53 | 42.93613 | -82.22714 | 2662 ft | 206 kts | 124° |
| 2026-04-25 00:53 | 42.93199 | -82.20848 | 2655 ft | 211 kts | 91° |
| 2026-04-25 00:54 | 42.93602 | -82.18948 | 2662 ft | 216 kts | 58° |
| 2026-04-25 00:54 | 42.94769 | -82.17657 | 2669 ft | 220 kts | 19° |
| 2026-04-25 00:54 | 42.96271 | -82.17611 | 2670 ft | 220 kts | 339° |
| 2026-04-25 00:54 | 42.97516 | -82.18768 | 2681 ft | 219 kts | 314° |
| 2026-04-25 00:55 | 42.98618 | -82.20213 | 2672 ft | 221 kts | 315° |
| 2026-04-25 00:55 | 42.99783 | -82.21597 | 2668 ft | 222 kts | 328° |
| 2026-04-25 00:55 | 43.01161 | -82.22385 | 2680 ft | 222 kts | 341° |
| 2026-04-25 00:55 | 43.02633 | -82.23030 | 2695 ft | 224 kts | 341° |
| 2026-04-25 00:56 | 43.04108 | -82.23657 | 2688 ft | 226 kts | 342° |
| 2026-04-25 00:56 | 43.05738 | -82.24349 | 2964 ft | 250 kts | 342° |
| 2026-04-25 00:56 | 43.07354 | -82.25015 | 2988 ft | 234 kts | 342° |
| 2026-04-25 00:56 | 43.08857 | -82.25640 | 2999 ft | 223 kts | 341° |
| 2026-04-25 00:57 | 43.10401 | -82.26294 | 2968 ft | 236 kts | 341° |
| 2026-04-25 00:57 | 43.11969 | -82.26957 | 2958 ft | 237 kts | 341° |